Météo Nord-Pas-de-Calais   La météo au plus près de chez vous

Station météorologique

Observations météo à Embrun (05046)

05046001 873 m Dernier relevé à 20:00
23.6°C
Humidité 37 % Vent 8.3 km/h

Journée consultée

Jeudi 3 Septembre 2026

Synthèse de la journée

Périodes de référence en UTC

Température maximale

29.7°C

à 16:18

06h 06h

Température minimale

14.5°C

à 09:00

18h 18h

Rafale maximale

34 km/h

à 15:06

00h 00h

Précipitations

0 mm

Cumul quotidien

06h 06h

Ensoleillement

9h 46 mins

Durée quotidienne

00h 00h

Graphiques de la journée

Heure locale Réduire

Données détaillées

Relevés météo

Pas de 6 minutes Afficher les relevés infra-horaires
Relevés météo détaillés à Embrun pour le Jeudi 3 Septembre 2026
Heure Température °C Point de rosée °C Humidité % Vent moyen (raf.), km/h Précipitations mm Température à 10 cm °C Température à 20 cm °C Température à 50 cm °C Température à 100 cm °C Hauteur neige cm Ensoleillement min Rayonnement global W/m²
20:00 23.6 °C 11.3 °C 46 % 4 km/h (8 km/h) 0 mm0 mm 23.1 °C 21.4 °C 19.7 °C 19.4 °C 0 cm 0 min 0 W/m²
19:54 24.1 °C 11.1 °C 44 % 6 km/h (10 km/h) 0 mm0 mm 23.1 °C 21.3 °C 19.7 °C 19.4 °C 0 cm 0 min 1.2 W/m²
19:48 24.5 °C 11.4 °C 44 % 6 km/h (13 km/h) 0 mm0 mm 23.2 °C 21.3 °C 19.7 °C 19.4 °C 0 cm 0 min 5.3 W/m²
19:42 24.8 °C 11.4 °C 43 % 6 km/h (13 km/h) 0 mm0 mm 23.1 °C 21.3 °C 19.7 °C 19.4 °C 0 cm 0 min 7 W/m²
19:36 25.4 °C 11.2 °C 41 % 5 km/h (10 km/h) 0 mm0 mm 23.1 °C 21.3 °C 19.7 °C 19.4 °C 0 cm 0 min 8.7 W/m²
19:30 25.8 °C 10.8 °C 39 % 7 km/h (12 km/h) 0 mm0 mm 23.1 °C 21.2 °C 19.7 °C 19.4 °C 0 cm 0 min 10.4 W/m²
19:24 26.1 °C 10.3 °C 37 % 9 km/h (12 km/h) 0 mm0 mm 23.1 °C 21.2 °C 19.7 °C 19.4 °C 0 cm 0 min 11.8 W/m²
19:18 26.3 °C 10.4 °C 37 % 9 km/h (15 km/h) 0 mm0 mm 23.1 °C 21.2 °C 19.7 °C 19.4 °C 0 cm 0 min 13.6 W/m²
19:12 26.6 °C 10.3 °C 36 % 9 km/h (16 km/h) 0 mm0 mm 23.1 °C 21.2 °C 19.7 °C 19.4 °C 0 cm 2 min 25.8 W/m²
19:06 26.6 °C 10.7 °C 37 % 9 km/h (15 km/h) 0 mm0 mm 23.1 °C 21.1 °C 19.7 °C 19.4 °C 0 cm 6 min 36.4 W/m²
19:00 26.6 °C 10.7 °C 37 % 8 km/h (15 km/h) 0 mm0 mm 23.1 °C 21.1 °C 19.7 °C 19.4 °C 0 cm 4 min 35.9 W/m²
18:54 26.7 °C 10.8 °C 37 % 8 km/h (17 km/h) 0 mm0 mm 23.1 °C 21.1 °C 19.7 °C 19.4 °C 0 cm 2 min 40.2 W/m²
18:48 26.7 °C 10.8 °C 37 % 9 km/h (20 km/h) 0 mm0 mm 23 °C 21 °C 19.7 °C 19.4 °C 0 cm 0 min 34.7 W/m²
18:42 26.9 °C 10.6 °C 36 % 12 km/h (21 km/h) 0 mm0 mm 23 °C 21 °C 19.7 °C 19.4 °C 0 cm 0 min 35.7 W/m²
18:36 27.2 °C 10.4 °C 35 % 10 km/h (21 km/h) 0 mm0 mm 23 °C 20.9 °C 19.7 °C 19.4 °C 0 cm 0 min 43.1 W/m²
18:30 27.6 °C 10.8 °C 35 % 9 km/h (19 km/h) 0 mm0 mm 23 °C 20.9 °C 19.7 °C 19.4 °C 0 cm 0 min 49 W/m²
18:24 27.9 °C 10.6 °C 34 % 8 km/h (19 km/h) 0 mm0 mm 23 °C 20.9 °C 19.7 °C 19.4 °C 0 cm 6 min 80 W/m²
18:18 27.7 °C 10 °C 33 % 8 km/h (15 km/h) 0 mm0 mm 22.9 °C 20.8 °C 19.7 °C 19.4 °C 0 cm 6 min 92.4 W/m²
18:12 27.3 °C 10.1 °C 34 % 8 km/h (17 km/h) 0 mm0 mm 22.9 °C 20.8 °C 19.7 °C 19.4 °C 0 cm 1 min 51.6 W/m²
18:06 27.7 °C 10 °C 33 % 8 km/h (17 km/h) 0 mm0 mm 22.9 °C 20.8 °C 19.7 °C 19.4 °C 0 cm 2 min 72.3 W/m²
18:00 27.8 °C 10.5 °C 34 % 9 km/h (17 km/h) 0 mm0 mm 22.8 °C 20.7 °C 19.7 °C 19.4 °C 0 cm 0 min 56.8 W/m²
17:54 28.2 °C 10.4 °C 33 % 9 km/h (20 km/h) 0 mm0 mm 22.8 °C 20.7 °C 19.7 °C 19.4 °C 0 cm 1 min 72.6 W/m²
17:48 28.5 °C 10.7 °C 33 % 10 km/h (23 km/h) 0 mm0 mm 22.7 °C 20.7 °C 19.7 °C 19.4 °C 0 cm 3 min 101 W/m²
17:42 28.5 °C 10.7 °C 33 % 10 km/h (26 km/h) 0 mm0 mm 22.7 °C 20.6 °C 19.7 °C 19.4 °C 0 cm 6 min 127.6 W/m²
17:36 28.5 °C 10.7 °C 33 % 12 km/h (26 km/h) 0 mm0 mm 22.6 °C 20.6 °C 19.7 °C 19.4 °C 0 cm 5 min 115.4 W/m²
17:30 28.7 °C 10.4 °C 32 % 12 km/h (23 km/h) 0 mm0 mm 22.6 °C 20.6 °C 19.7 °C 19.4 °C 0 cm 5 min 118.9 W/m²
17:24 28.9 °C 10.5 °C 32 % 12 km/h (23 km/h) 0 mm0 mm 22.5 °C 20.5 °C 19.7 °C 19.4 °C 0 cm 6 min 137.5 W/m²
17:18 28.8 °C 10 °C 31 % 14 km/h (24 km/h) 0 mm0 mm 22.5 °C 20.5 °C 19.7 °C 19.4 °C 0 cm 6 min 144.9 W/m²
17:12 29 °C 10.2 °C 31 % 12 km/h (24 km/h) 0 mm0 mm 22.4 °C 20.5 °C 19.7 °C 19.4 °C 0 cm 6 min 148.8 W/m²
17:06 29 °C 10.6 °C 32 % 13 km/h (26 km/h) 0 mm0 mm 22.3 °C 20.4 °C 19.8 °C 19.4 °C 0 cm 6 min 154.7 W/m²
17:00 28.9 °C 9.1 °C 29 % 13 km/h (26 km/h) 0 mm0 mm 22.3 °C 20.4 °C 19.7 °C 19.4 °C 0 cm 6 min 160.2 W/m²
16:54 29.1 °C 10.2 °C 31 % 14 km/h (24 km/h) 0 mm0 mm 22.2 °C 20.4 °C 19.8 °C 19.4 °C 0 cm 6 min 166.4 W/m²
16:48 29 °C 9.7 °C 30 % 13 km/h (23 km/h) 0 mm0 mm 22.1 °C 20.3 °C 19.8 °C 19.4 °C 0 cm 6 min 171.3 W/m²
16:42 29.1 °C 9.8 °C 30 % 14 km/h (23 km/h) 0 mm0 mm 22.1 °C 20.3 °C 19.7 °C 19.4 °C 0 cm 6 min 178.1 W/m²
16:36 29.1 °C 9.8 °C 30 % 14 km/h (24 km/h) 0 mm0 mm 22 °C 20.3 °C 19.8 °C 19.4 °C 0 cm 6 min 184.2 W/m²
16:30 29.4 °C 10 °C 30 % 14 km/h (24 km/h) 0 mm0 mm 21.9 °C 20.2 °C 19.8 °C 19.4 °C 0 cm 6 min 189.6 W/m²
16:24 29.4 °C 10 °C 30 % 14 km/h (28 km/h) 0 mm0 mm 21.9 °C 20.2 °C 19.8 °C 19.4 °C 0 cm 6 min 193.5 W/m²
16:18 29.7 °C 10.8 °C 31 % 13 km/h (28 km/h) 0 mm0 mm 21.8 °C 20.2 °C 19.8 °C 19.4 °C 0 cm 6 min 199.3 W/m²
16:12 29.6 °C 8.6 °C 27 % 14 km/h (28 km/h) 0 mm0 mm 21.7 °C 20.1 °C 19.8 °C 19.4 °C 0 cm 6 min 203.8 W/m²
16:06 29.4 °C 8.4 °C 27 % 13 km/h (28 km/h) 0 mm0 mm 21.6 °C 20.1 °C 19.8 °C 19.4 °C 0 cm 6 min 208 W/m²
16:00 29.4 °C 10 °C 30 % 14 km/h (31 km/h) 0 mm0 mm 21.5 °C 20 °C 19.8 °C 19.4 °C 0 cm 6 min 212.6 W/m²
15:54 29.3 °C 8.9 °C 28 % 13 km/h (31 km/h) 0 mm0 mm 21.5 °C 20 °C 19.8 °C 19.4 °C 0 cm 6 min 216.8 W/m²
15:48 29.5 °C 10.6 °C 31 % 11 km/h (22 km/h) 0 mm0 mm 21.4 °C 20 °C 19.8 °C 19.4 °C 0 cm 6 min 220.2 W/m²
15:42 29.3 °C 10.9 °C 32 % 10 km/h (24 km/h) 0 mm0 mm 21.3 °C 19.9 °C 19.8 °C 19.4 °C 0 cm 6 min 223.9 W/m²
15:36 29 °C 10.2 °C 31 % 12 km/h (24 km/h) 0 mm0 mm 21.2 °C 19.9 °C 19.8 °C 19.4 °C 0 cm 6 min 227.3 W/m²
15:30 28.8 °C 10 °C 31 % 13 km/h (26 km/h) 0 mm0 mm 21.1 °C 19.9 °C 19.8 °C 19.4 °C 0 cm 6 min 231.4 W/m²
15:24 29 °C 10.2 °C 31 % 13 km/h (28 km/h) 0 mm0 mm 21.1 °C 19.9 °C 19.8 °C 19.4 °C 0 cm 6 min 233.9 W/m²
15:18 28.8 °C 10.9 °C 33 % 15 km/h (28 km/h) 0 mm0 mm 21 °C 19.8 °C 19.8 °C 19.4 °C 0 cm 6 min 237.4 W/m²
15:12 28.5 °C 9.7 °C 31 % 17 km/h (34 km/h) 0 mm0 mm 20.9 °C 19.8 °C 19.8 °C 19.4 °C 0 cm 6 min 240.1 W/m²
15:06 28.1 °C 9.9 °C 32 % 20 km/h (34 km/h) 0 mm0 mm 20.8 °C 19.8 °C 19.8 °C 19.4 °C 0 cm 6 min 242.2 W/m²
15:00 28.5 °C 9.2 °C 30 % 16 km/h (33 km/h) 0 mm0 mm 20.7 °C 19.8 °C 19.8 °C 19.4 °C 0 cm 6 min 244.6 W/m²
14:54 28.6 °C 10.3 °C 32 % 13 km/h (32 km/h) 0 mm0 mm 20.6 °C 19.7 °C 19.8 °C 19.4 °C 0 cm 6 min 246.8 W/m²
14:48 28.7 °C 11.3 °C 34 % 14 km/h (26 km/h) 0 mm0 mm 20.5 °C 19.7 °C 19.8 °C 19.4 °C 0 cm 6 min 248.7 W/m²
14:42 28.3 °C 10.9 °C 34 % 16 km/h (26 km/h) 0 mm0 mm 20.5 °C 19.7 °C 19.8 °C 19.4 °C 0 cm 6 min 250.2 W/m²
14:36 28.9 °C 11.5 °C 34 % 13 km/h (26 km/h) 0 mm0 mm 20.4 °C 19.7 °C 19.8 °C 19.4 °C 0 cm 6 min 251.8 W/m²
14:30 29.1 °C 11.2 °C 33 % 13 km/h (24 km/h) 0 mm0 mm 20.3 °C 19.7 °C 19.8 °C 19.4 °C 0 cm 6 min 253.3 W/m²
14:24 29.1 °C 11.2 °C 33 % 12 km/h (24 km/h) 0 mm0 mm 20.2 °C 19.7 °C 19.8 °C 19.4 °C 0 cm 6 min 254.6 W/m²
14:18 29 °C 12 °C 35 % 11 km/h (24 km/h) 0 mm0 mm 20.2 °C 19.6 °C 19.8 °C 19.4 °C 0 cm 6 min 256 W/m²
14:12 28.9 °C 11 °C 33 % 9 km/h (19 km/h) 0 mm0 mm 20.1 °C 19.6 °C 19.8 °C 19.4 °C 0 cm 6 min 257.1 W/m²
14:06 28.6 °C 11.6 °C 35 % 10 km/h (17 km/h) 0 mm0 mm 20 °C 19.6 °C 19.8 °C 19.4 °C 0 cm 6 min 258.1 W/m²
14:00 28.1 °C 10.8 °C 34 % 9 km/h (19 km/h) 0 mm0 mm 19.9 °C 19.6 °C 19.8 °C 19.4 °C 0 cm 6 min 259.4 W/m²
13:54 27.5 °C 9.3 °C 32 % 10 km/h (20 km/h) 0 mm0 mm 19.8 °C 19.6 °C 19.8 °C 19.4 °C 0 cm 6 min 260.7 W/m²
13:48 26.8 °C 8.2 °C 31 % 12 km/h (20 km/h) 0 mm0 mm 19.8 °C 19.6 °C 19.8 °C 19.4 °C 0 cm 6 min 261.5 W/m²
13:42 27.3 °C 9.2 °C 32 % 12 km/h (21 km/h) 0 mm0 mm 19.7 °C 19.5 °C 19.8 °C 19.4 °C 0 cm 6 min 261.6 W/m²
13:36 26.4 °C 8.4 °C 32 % 13 km/h (21 km/h) 0 mm0 mm 19.6 °C 19.5 °C 19.9 °C 19.4 °C 0 cm 6 min 262.1 W/m²
13:30 26.2 °C 8.7 °C 33 % 13 km/h (21 km/h) 0 mm0 mm 19.5 °C 19.5 °C 19.8 °C 19.4 °C 0 cm 6 min 262.3 W/m²
13:24 26.3 °C 10 °C 36 % 12 km/h (19 km/h) 0 mm0 mm 19.5 °C 19.5 °C 19.8 °C 19.4 °C 0 cm 6 min 262.1 W/m²
13:18 26.4 °C 8.8 °C 33 % 11 km/h (18 km/h) 0 mm0 mm 19.4 °C 19.5 °C 19.8 °C 19.4 °C 0 cm 6 min 262 W/m²
13:12 26.4 °C 10.5 °C 37 % 9 km/h (16 km/h) 0 mm0 mm 19.3 °C 19.5 °C 19.9 °C 19.4 °C 0 cm 6 min 261.2 W/m²
13:06 26.3 °C 9.6 °C 35 % 9 km/h (18 km/h) 0 mm0 mm 19.3 °C 19.5 °C 19.8 °C 19.4 °C 0 cm 6 min 260.2 W/m²
13:00 27.5 °C 8.9 °C 31 % 8 km/h (18 km/h) 0 mm0 mm 19.2 °C 19.5 °C 19.8 °C 19.4 °C 0 cm 6 min 259.2 W/m²
12:54 27.6 °C 10.3 °C 34 % 6 km/h (12 km/h) 0 mm0 mm 19.1 °C 19.5 °C 19.9 °C 19.4 °C 0 cm 6 min 258 W/m²
12:48 26.8 °C 11.3 °C 38 % 6 km/h (13 km/h) 0 mm0 mm 19.1 °C 19.5 °C 19.9 °C 19.4 °C 0 cm 6 min 256.6 W/m²
12:42 25.7 °C 9.1 °C 35 % 7 km/h (13 km/h) 0 mm0 mm 19 °C 19.5 °C 19.9 °C 19.4 °C 0 cm 6 min 255 W/m²
12:36 25 °C 10.5 °C 40 % 8 km/h (13 km/h) 0 mm0 mm 18.9 °C 19.5 °C 19.9 °C 19.4 °C 0 cm 6 min 253.4 W/m²
12:30 24.6 °C 8.9 °C 37 % 9 km/h (18 km/h) 0 mm0 mm 18.9 °C 19.5 °C 19.9 °C 19.4 °C 0 cm 6 min 251.6 W/m²
12:24 24.7 °C 8.6 °C 36 % 9 km/h (18 km/h) 0 mm0 mm 18.8 °C 19.5 °C 19.9 °C 19.4 °C 0 cm 6 min 249.7 W/m²
12:18 24.9 °C 9.6 °C 38 % 8 km/h (15 km/h) 0 mm0 mm 18.8 °C 19.5 °C 19.9 °C 19.4 °C 0 cm 6 min 247 W/m²
12:12 25 °C 8.5 °C 35 % 8 km/h (15 km/h) 0 mm0 mm 18.7 °C 19.5 °C 19.9 °C 19.4 °C 0 cm 6 min 244.7 W/m²
12:06 26.1 °C 8.6 °C 33 % 6 km/h (14 km/h) 0 mm0 mm 18.7 °C 19.5 °C 19.9 °C 19.4 °C 0 cm 6 min 242.2 W/m²
12:00 26.1 °C 9 °C 34 % 6 km/h (14 km/h) 0 mm0 mm 18.7 °C 19.5 °C 19.9 °C 19.4 °C 0 cm 6 min 239.9 W/m²
11:54 25.5 °C 9.3 °C 36 % 5 km/h (14 km/h) 0 mm0 mm 18.7 °C 19.6 °C 19.9 °C 19.4 °C 0 cm 6 min 236.9 W/m²
11:48 25.2 °C 9.1 °C 36 % 5 km/h (11 km/h) 0 mm0 mm 18.6 °C 19.6 °C 19.9 °C 19.4 °C 0 cm 6 min 233.8 W/m²
11:42 24.9 °C 9.2 °C 37 % 5 km/h (10 km/h) 0 mm0 mm 18.6 °C 19.6 °C 19.9 °C 19.4 °C 0 cm 6 min 230.5 W/m²
11:36 24.3 °C 9.5 °C 39 % 5 km/h (10 km/h) 0 mm0 mm 18.6 °C 19.6 °C 19.9 °C 19.4 °C 0 cm 6 min 226.8 W/m²
11:30 23.9 °C 9.1 °C 39 % 5 km/h (12 km/h) 0 mm0 mm 18.5 °C 19.6 °C 19.9 °C 19.4 °C 0 cm 6 min 223.2 W/m²
11:24 23.7 °C 8.1 °C 37 % 5 km/h (10 km/h) 0 mm0 mm 18.5 °C 19.6 °C 19.9 °C 19.4 °C 0 cm 6 min 219.2 W/m²
11:18 23.3 °C 7.4 °C 36 % 4 km/h (10 km/h) 0 mm0 mm 18.5 °C 19.6 °C 19.9 °C 19.4 °C 0 cm 6 min 215.4 W/m²
11:12 23.5 °C 8 °C 37 % 5 km/h (10 km/h) 0 mm0 mm 18.5 °C 19.6 °C 19.9 °C 19.4 °C 0 cm 6 min 211.4 W/m²
11:06 23.1 °C 6.8 °C 35 % 8 km/h (14 km/h) 0 mm0 mm 18.5 °C 19.6 °C 19.9 °C 19.4 °C 0 cm 6 min 207.4 W/m²
11:00 22.9 °C 8.2 °C 39 % 8 km/h (14 km/h) 0 mm0 mm 18.5 °C 19.7 °C 19.9 °C 19.4 °C 0 cm 6 min 203.1 W/m²
10:54 23.1 °C 8.8 °C 40 % 9 km/h (14 km/h) 0 mm0 mm 18.5 °C 19.7 °C 19.9 °C 19.4 °C 0 cm 6 min 198.9 W/m²
10:48 22.4 °C 7.8 °C 39 % 9 km/h (14 km/h) 0 mm0 mm 18.5 °C 19.7 °C 19.9 °C 19.4 °C 0 cm 6 min 194.5 W/m²
10:42 22.5 °C 8.2 °C 40 % 9 km/h (17 km/h) 0 mm0 mm 18.5 °C 19.7 °C 19.9 °C 19.4 °C 0 cm 6 min 190.4 W/m²
10:36 21.9 °C 7.3 °C 39 % 10 km/h (18 km/h) 0 mm0 mm 18.5 °C 19.7 °C 19.9 °C 19.4 °C 0 cm 6 min 185.6 W/m²
10:30 22 °C 7.4 °C 39 % 10 km/h (18 km/h) 0 mm0 mm 18.5 °C 19.7 °C 19.9 °C 19.4 °C 0 cm 6 min 180.7 W/m²
10:24 21.7 °C 7.9 °C 41 % 9 km/h (14 km/h) 0 mm0 mm 18.5 °C 19.8 °C 19.9 °C 19.4 °C 0 cm 6 min 175.5 W/m²
10:18 22 °C 8.8 °C 43 % 8 km/h (14 km/h) 0 mm0 mm 18.5 °C 19.8 °C 19.9 °C 19.4 °C 0 cm 6 min 170 W/m²
10:12 21.6 °C 8.1 °C 42 % 8 km/h (16 km/h) 0 mm0 mm 18.6 °C 19.8 °C 19.9 °C 19.4 °C 0 cm 6 min 164.7 W/m²
10:06 21.2 °C 8.5 °C 44 % 7 km/h (16 km/h) 0 mm0 mm 18.6 °C 19.8 °C 19.9 °C 19.4 °C 0 cm 6 min 159.5 W/m²
10:00 20.5 °C 7.1 °C 42 % 8 km/h (18 km/h) 0 mm0 mm 18.6 °C 19.8 °C 19.9 °C 19.4 °C 0 cm 6 min 153.8 W/m²
09:54 20.3 °C 7.6 °C 44 % 10 km/h (22 km/h) 0 mm0 mm 18.6 °C 19.8 °C 19.9 °C 19.4 °C 0 cm 6 min 148.1 W/m²
09:48 19.7 °C 8.4 °C 48 % 13 km/h (23 km/h) 0 mm0 mm 18.6 °C 19.9 °C 19.9 °C 19.4 °C 0 cm 6 min 142 W/m²
09:42 19.5 °C 6.9 °C 44 % 14 km/h (25 km/h) 0 mm0 mm 18.6 °C 19.9 °C 19.9 °C 19.4 °C 0 cm 6 min 136.4 W/m²
09:36 19.1 °C 6.6 °C 44 % 19 km/h (33 km/h) 0 mm0 mm 18.7 °C 19.9 °C 19.9 °C 19.4 °C 0 cm 6 min 130.8 W/m²
09:30 18.5 °C 7 °C 47 % 19 km/h (33 km/h) 0 mm0 mm 18.7 °C 19.9 °C 19.9 °C 19.4 °C 0 cm 6 min 125.1 W/m²
09:24 19.1 °C 8.1 °C 49 % 12 km/h (23 km/h) 0 mm0 mm 18.7 °C 19.9 °C 19.9 °C 19.4 °C 0 cm 6 min 119.3 W/m²
09:18 19.3 °C 8.3 °C 49 % 7 km/h (17 km/h) 0 mm0 mm 18.7 °C 19.9 °C 19.9 °C 19.4 °C 0 cm 6 min 113.7 W/m²
09:12 18.7 °C 9.5 °C 55 % 8 km/h (14 km/h) 0 mm0 mm 18.8 °C 20 °C 19.9 °C 19.4 °C 0 cm 6 min 108.5 W/m²
09:06 18.2 °C 7.6 °C 50 % 10 km/h (18 km/h) 0 mm0 mm 18.8 °C 20 °C 19.9 °C 19.4 °C 0 cm 6 min 103.2 W/m²
09:00 18 °C 7.7 °C 51 % 11 km/h (19 km/h) 0 mm0 mm 18.8 °C 20 °C 19.9 °C 19.4 °C 0 cm 6 min 97.5 W/m²
08:54 17.7 °C 8.3 °C 54 % 13 km/h (23 km/h) 0 mm0 mm 18.8 °C 20 °C 19.9 °C 19.4 °C 0 cm 6 min 91.1 W/m²
08:48 17.2 °C 7.8 °C 54 % 14 km/h (23 km/h) 0 mm0 mm 18.9 °C 20 °C 19.9 °C 19.4 °C 0 cm 6 min 85.8 W/m²
08:42 16.9 °C 7 °C 52 % 15 km/h (23 km/h) 0 mm0 mm 18.9 °C 20 °C 19.9 °C 19.4 °C 0 cm 6 min 79.8 W/m²
08:36 16.1 °C 7 °C 55 % 15 km/h (23 km/h) 0 mm0 mm 18.9 °C 20.1 °C 19.9 °C 19.4 °C 0 cm 6 min 73.7 W/m²
08:30 15.4 °C 6.9 °C 57 % 12 km/h (21 km/h) 0 mm0 mm 18.9 °C 20.1 °C 19.9 °C 19.4 °C 0 cm 3 min 39.1 W/m²
08:24 14.6 °C 6.7 °C 59 % 12 km/h (18 km/h) 0 mm0 mm 19 °C 20.1 °C 19.9 °C 19.4 °C 0 cm 0 min 8.6 W/m²
08:18 14.7 °C 7 °C 60 % 12 km/h (18 km/h) 0 mm0 mm 19 °C 20.1 °C 19.9 °C 19.4 °C 0 cm 0 min 8.3 W/m²
08:12 14.9 °C 7 °C 59 % 10 km/h (17 km/h) 0 mm0 mm 19 °C 20.1 °C 19.9 °C 19.4 °C 0 cm 0 min 8.3 W/m²
08:06 15 °C 6.8 °C 58 % 9 km/h (17 km/h) 0 mm0 mm 19 °C 20.2 °C 19.9 °C 19.4 °C 0 cm 0 min 8.2 W/m²
08:00 15.2 °C 7 °C 58 % 11 km/h (17 km/h) 0 mm0 mm 19.1 °C 20.2 °C 19.9 °C 19.4 °C 0 cm 0 min 7.9 W/m²
07:54 15.4 °C 6.9 °C 57 % 14 km/h (25 km/h) 0 mm0 mm 19.1 °C 20.2 °C 19.9 °C 19.4 °C 0 cm 0 min 6.8 W/m²
07:48 15.3 °C 7.1 °C 58 % 12 km/h (22 km/h) 0 mm0 mm 19.1 °C 20.2 °C 19.9 °C 19.4 °C 0 cm 0 min 5.5 W/m²
07:42 15.4 °C 7.2 °C 58 % 14 km/h (29 km/h) 0 mm0 mm 19.2 °C 20.2 °C 19.9 °C 19.4 °C 0 cm 0 min 4.6 W/m²
07:36 15.6 °C 6.8 °C 56 % 15 km/h (29 km/h) 0 mm0 mm 19.2 °C 20.3 °C 19.9 °C 19.4 °C 0 cm 0 min 4.2 W/m²
07:30 15.6 °C 6.8 °C 56 % 13 km/h (25 km/h) 0 mm0 mm 19.2 °C 20.3 °C 19.9 °C 19.4 °C 0 cm 0 min 1.7 W/m²
07:24 15.6 °C 7.1 °C 57 % 14 km/h (26 km/h) 0 mm0 mm 19.3 °C 20.3 °C 19.9 °C 19.4 °C 0 cm 0 min 0 W/m²
07:18 15.9 °C 7.1 °C 56 % 17 km/h (30 km/h) 0 mm0 mm 19.3 °C 20.3 °C 19.9 °C 19.4 °C 0 cm 0 min 0 W/m²
07:12 16.1 °C 6.8 °C 54 % 17 km/h (30 km/h) 0 mm0 mm 19.3 °C 20.3 °C 19.9 °C 19.4 °C 0 cm 0 min 0 W/m²
07:06 15.8 °C 7.3 °C 57 % 17 km/h (31 km/h) 0 mm0 mm 19.3 °C 20.3 °C 19.9 °C 19.4 °C 0 cm 0 min 0 W/m²
07:00 15.6 °C 7.4 °C 58 % 15 km/h (31 km/h) 0 mm0 mm 19.4 °C 20.3 °C 19.9 °C 19.4 °C 0 cm 0 min 0 W/m²
06:54 15.6 °C 7.4 °C 58 % 15 km/h (25 km/h) 0 mm0 mm 19.4 °C 20.4 °C 19.9 °C 19.4 °C 0 cm 0 min 0 W/m²
06:48 15.4 °C 7.4 °C 59 % 13 km/h (23 km/h) 0 mm0 mm 19.4 °C 20.4 °C 19.9 °C 19.4 °C 0 cm 0 min 0 W/m²
06:42 15.6 °C 7.6 °C 59 % 13 km/h (23 km/h) 0 mm0 mm 19.4 °C 20.4 °C 19.9 °C 19.4 °C 0 cm 0 min 0 W/m²
06:36 15.5 °C 7.5 °C 59 % 9 km/h (16 km/h) 0 mm0 mm 19.5 °C 20.4 °C 19.9 °C 19.4 °C 0 cm 0 min 0 W/m²
06:30 15.3 °C 7.6 °C 60 % 8 km/h (15 km/h) 0 mm0 mm 19.5 °C 20.4 °C 19.9 °C 19.4 °C 0 cm 0 min 0 W/m²
06:24 15.4 °C 7.7 °C 60 % 10 km/h (20 km/h) 0 mm0 mm 19.5 °C 20.4 °C 19.9 °C 19.4 °C 0 cm 0 min 0 W/m²
06:18 15.2 °C 7.7 °C 61 % 11 km/h (20 km/h) 0 mm0 mm 19.5 °C 20.5 °C 19.9 °C 19.4 °C 0 cm 0 min 0 W/m²
06:12 15.2 °C 8 °C 62 % 10 km/h (16 km/h) 0 mm0 mm 19.6 °C 20.5 °C 19.9 °C 19.4 °C 0 cm 0 min 0 W/m²
06:06 15.5 °C 8 °C 61 % 10 km/h (18 km/h) 0 mm0 mm 19.6 °C 20.5 °C 19.9 °C 19.4 °C 0 cm 0 min 0 W/m²
06:00 15.7 °C 8 °C 60 % 13 km/h (22 km/h) 0 mm0 mm 19.6 °C 20.5 °C 19.9 °C 19.4 °C 0 cm 0 min 0 W/m²
05:54 16.1 °C 8.1 °C 59 % 16 km/h (25 km/h) 0 mm0 mm 19.7 °C 20.5 °C 19.9 °C 19.4 °C 0 cm 0 min 0 W/m²
05:48 16.2 °C 8.2 °C 59 % 17 km/h (27 km/h) 0 mm0 mm 19.7 °C 20.5 °C 19.9 °C 19.4 °C 0 cm 0 min 0 W/m²
05:42 16.1 °C 8.1 °C 59 % 15 km/h (27 km/h) 0 mm0 mm 19.7 °C 20.6 °C 19.9 °C 19.4 °C 0 cm 0 min 0 W/m²
05:36 16.1 °C 8.3 °C 60 % 15 km/h (24 km/h) 0 mm0 mm 19.8 °C 20.6 °C 19.9 °C 19.4 °C 0 cm 0 min 0 W/m²
05:30 16.2 °C 8.4 °C 60 % 18 km/h (25 km/h) 0 mm0 mm 19.8 °C 20.6 °C 19.9 °C 19.4 °C 0 cm 0 min 0 W/m²
05:24 16.3 °C 8.5 °C 60 % 16 km/h (25 km/h) 0 mm0 mm 19.8 °C 20.6 °C 19.9 °C 19.4 °C 0 cm 0 min 0 W/m²
05:18 16.2 °C 8.4 °C 60 % 13 km/h (22 km/h) 0 mm0 mm 19.8 °C 20.6 °C 19.9 °C 19.4 °C 0 cm 0 min 0 W/m²
05:12 16.4 °C 8.6 °C 60 % 16 km/h (25 km/h) 0 mm0 mm 19.8 °C 20.6 °C 19.9 °C 19.4 °C 0 cm 0 min 0 W/m²
05:06 16.4 °C 8.6 °C 60 % 17 km/h (25 km/h) 0 mm0 mm 19.9 °C 20.6 °C 19.9 °C 19.4 °C 0 cm 0 min 0 W/m²
05:00 16.2 °C 8.7 °C 61 % 15 km/h (24 km/h) 0 mm0 mm 19.9 °C 20.7 °C 19.9 °C 19.4 °C 0 cm 0 min 0 W/m²
04:54 16.1 °C 9 °C 63 % 11 km/h (23 km/h) 0 mm0 mm 19.9 °C 20.7 °C 19.9 °C 19.4 °C 0 cm 0 min 0 W/m²
04:48 16.3 °C 8.8 °C 61 % 12 km/h (20 km/h) 0 mm0 mm 20 °C 20.7 °C 19.9 °C 19.4 °C 0 cm 0 min 0 W/m²
04:42 16.5 °C 8.7 °C 60 % 12 km/h (20 km/h) 0 mm0 mm 20 °C 20.7 °C 19.9 °C 19.4 °C 0 cm 0 min 0 W/m²
04:36 16.6 °C 8.8 °C 60 % 11 km/h (18 km/h) 0 mm0 mm 20 °C 20.7 °C 19.9 °C 19.4 °C 0 cm 0 min 0 W/m²
04:30 16.5 °C 8.7 °C 60 % 12 km/h (18 km/h) 0 mm0 mm 20.1 °C 20.7 °C 19.9 °C 19.4 °C 0 cm 0 min 0 W/m²
04:24 16.5 °C 8.9 °C 61 % 12 km/h (19 km/h) 0 mm0 mm 20.1 °C 20.7 °C 19.9 °C 19.4 °C 0 cm 0 min 0 W/m²
04:18 16.2 °C 8.9 °C 62 % 12 km/h (19 km/h) 0 mm0 mm 20.1 °C 20.8 °C 19.9 °C 19.4 °C 0 cm 0 min 0 W/m²
04:12 16.4 °C 9.1 °C 62 % 10 km/h (17 km/h) 0 mm0 mm 20.2 °C 20.8 °C 19.9 °C 19.4 °C 0 cm 0 min 0 W/m²
04:06 16.4 °C 9.1 °C 62 % 9 km/h (14 km/h) 0 mm0 mm 20.2 °C 20.8 °C 19.9 °C 19.4 °C 0 cm 0 min 0 W/m²
04:00 16.3 °C 9.2 °C 63 % 9 km/h (19 km/h) 0 mm0 mm 20.2 °C 20.8 °C 19.9 °C 19.4 °C 0 cm 0 min 0 W/m²
03:54 16.2 °C 9.1 °C 63 % 10 km/h (19 km/h) 0 mm0 mm 20.3 °C 20.8 °C 19.9 °C 19.4 °C 0 cm 0 min 0 W/m²
03:48 16.1 °C 9.3 °C 64 % 10 km/h (16 km/h) 0 mm0 mm 20.3 °C 20.8 °C 19.9 °C 19.4 °C 0 cm 0 min 0 W/m²
03:42 16.5 °C 9.2 °C 62 % 11 km/h (21 km/h) 0 mm0 mm 20.3 °C 20.8 °C 19.9 °C 19.4 °C 0 cm 0 min 0 W/m²
03:36 17 °C 9.2 °C 60 % 13 km/h (22 km/h) 0 mm0 mm 20.3 °C 20.9 °C 19.9 °C 19.4 °C 0 cm 0 min 0 W/m²
03:30 17.2 °C 9.4 °C 60 % 13 km/h (22 km/h) 0 mm0 mm 20.4 °C 20.9 °C 19.9 °C 19.4 °C 0 cm 0 min 0 W/m²
03:24 17.1 °C 9.3 °C 60 % 13 km/h (20 km/h) 0 mm0 mm 20.4 °C 20.9 °C 19.9 °C 19.4 °C 0 cm 0 min 0 W/m²
03:18 17 °C 9.4 °C 61 % 13 km/h (23 km/h) 0 mm0 mm 20.4 °C 20.9 °C 19.9 °C 19.4 °C 0 cm 0 min 0 W/m²
03:12 16.6 °C 9.5 °C 63 % 11 km/h (23 km/h) 0 mm0 mm 20.5 °C 20.9 °C 19.9 °C 19.4 °C 0 cm 0 min 0 W/m²
03:06 15.6 °C 9.7 °C 68 % 9 km/h (13 km/h) 0 mm0 mm 20.5 °C 20.9 °C 19.9 °C 19.4 °C 0 cm 0 min 0 W/m²
03:00 15.8 °C 9.7 °C 67 % 9 km/h (13 km/h) 0 mm0 mm 20.5 °C 20.9 °C 19.8 °C 19.4 °C 0 cm 0 min 0 W/m²
02:54 16.4 °C 9.8 °C 65 % 10 km/h (17 km/h) 0 mm0 mm 20.6 °C 20.9 °C 19.9 °C 19.4 °C 0 cm 0 min 0 W/m²
02:48 17.1 °C 9.8 °C 62 % 12 km/h (18 km/h) 0 mm0 mm 20.6 °C 21 °C 19.9 °C 19.4 °C 0 cm 0 min 0 W/m²
02:42 17.4 °C 9.6 °C 60 % 14 km/h (21 km/h) 0 mm0 mm 20.6 °C 21 °C 19.9 °C 19.4 °C 0 cm 0 min 0 W/m²
02:36 17.4 °C 9.8 °C 61 % 15 km/h (21 km/h) 0 mm0 mm 20.6 °C 21 °C 19.8 °C 19.4 °C 0 cm 0 min 0 W/m²
02:30 17.4 °C 9.8 °C 61 % 14 km/h (20 km/h) 0 mm0 mm 20.7 °C 21 °C 19.8 °C 19.4 °C 0 cm 0 min 0 W/m²
02:24 16.5 °C 10.1 °C 66 % 11 km/h (16 km/h) 0 mm0 mm 20.7 °C 21 °C 19.8 °C 19.4 °C 0 cm 0 min 0 W/m²
02:18 15.8 °C 10.1 °C 69 % 9 km/h (15 km/h) 0 mm0 mm 20.7 °C 21 °C 19.8 °C 19.4 °C 0 cm 0 min 0 W/m²
02:12 15.8 °C 10.3 °C 70 % 8 km/h (12 km/h) 0 mm0 mm 20.8 °C 21.1 °C 19.8 °C 19.4 °C 0 cm 0 min 0 W/m²
02:06 15.7 °C 10 °C 69 % 8 km/h (12 km/h) 0 mm0 mm 20.8 °C 21.1 °C 19.8 °C 19.4 °C 0 cm 0 min 0 W/m²
02:00 16 °C 10.3 °C 69 % 8 km/h (12 km/h) 0 mm0 mm 20.8 °C 21.1 °C 19.8 °C 19.4 °C 0 cm 0 min 0 W/m²
01:54 16.2 °C 10.1 °C 67 % 8 km/h (13 km/h) 0 mm0 mm 20.9 °C 21.1 °C 19.8 °C 19.4 °C 0 cm 0 min 0 W/m²
01:48 17 °C 10.4 °C 65 % 9 km/h (15 km/h) 0 mm0 mm 20.9 °C 21.1 °C 19.8 °C 19.4 °C 0 cm 0 min 0 W/m²
01:42 17.3 °C 9.9 °C 62 % 11 km/h (15 km/h) 0 mm0 mm 20.9 °C 21.1 °C 19.8 °C 19.4 °C 0 cm 0 min 0 W/m²
01:36 17.3 °C 10.2 °C 63 % 12 km/h (15 km/h) 0 mm0 mm 21 °C 21.1 °C 19.8 °C 19.4 °C 0 cm 0 min 0 W/m²
01:30 17.3 °C 10.2 °C 63 % 10 km/h (15 km/h) 0 mm0 mm 21 °C 21.1 °C 19.8 °C 19.4 °C 0 cm 0 min 0 W/m²
01:24 17.1 °C 10.2 °C 64 % 8 km/h (12 km/h) 0 mm0 mm 21 °C 21.1 °C 19.8 °C 19.4 °C 0 cm 0 min 0 W/m²
01:18 17 °C 10.4 °C 65 % 7 km/h (10 km/h) 0 mm0 mm 21.1 °C 21.1 °C 19.8 °C 19.4 °C 0 cm 0 min 0 W/m²
01:12 17 °C 10.4 °C 65 % 7 km/h (12 km/h) 0 mm0 mm 21.1 °C 21.2 °C 19.8 °C 19.4 °C 0 cm 0 min 0 W/m²
01:06 17 °C 10.4 °C 65 % 8 km/h (12 km/h) 0 mm0 mm 21.1 °C 21.2 °C 19.8 °C 19.4 °C 0 cm 0 min 0 W/m²
01:00 17.1 °C 10.5 °C 65 % 8 km/h (12 km/h) 0 mm0 mm 21.2 °C 21.2 °C 19.8 °C 19.4 °C 0 cm 0 min 0 W/m²
00:54 17 °C 10.6 °C 66 % 8 km/h (11 km/h) 0 mm0 mm 21.2 °C 21.2 °C 19.8 °C 19.4 °C 0 cm 0 min 0 W/m²
00:48 17 °C 10.6 °C 66 % 8 km/h (14 km/h) 0 mm0 mm 21.2 °C 21.2 °C 19.8 °C 19.4 °C 0 cm 0 min 0 W/m²
00:42 17.2 °C 10.6 °C 65 % 10 km/h (14 km/h) 0 mm0 mm 21.3 °C 21.2 °C 19.8 °C 19.5 °C 0 cm 0 min 0 W/m²
00:36 17.5 °C 10.6 °C 64 % 12 km/h (16 km/h) 0 mm0 mm 21.3 °C 21.2 °C 19.8 °C 19.4 °C 0 cm 0 min 0 W/m²
00:30 17.7 °C 10.3 °C 62 % 10 km/h (16 km/h) 0 mm0 mm 21.3 °C 21.2 °C 19.8 °C 19.4 °C 0 cm 0 min 0 W/m²
00:24 17.6 °C 10.5 °C 63 % 9 km/h (13 km/h) 0 mm0 mm 21.3 °C 21.2 °C 19.8 °C 19.5 °C 0 cm 0 min 0 W/m²
00:18 18 °C 10.4 °C 61 % 8 km/h (13 km/h) 0 mm0 mm 21.4 °C 21.2 °C 19.8 °C 19.4 °C 0 cm 0 min 0 W/m²
00:12 18.1 °C 10.5 °C 61 % 11 km/h (16 km/h) 0 mm0 mm 21.4 °C 21.2 °C 19.8 °C 19.5 °C 0 cm 0 min 0 W/m²
00:06 18.1 °C 10.5 °C 61 % 12 km/h (16 km/h) 0 mm0 mm 21.5 °C 21.2 °C 19.8 °C 19.4 °C 0 cm 0 min 0 W/m²
00:00 18.2 °C 10.3 °C 60 % 10 km/h (16 km/h) 0 mm0 mm 21.5 °C 21.2 °C 19.8 °C 19.5 °C 0 cm 0 min 0 W/m²

Données via Météo-France

Relevés météo à Embrun

Cette page rassemble les observations de la station de Embrun : température, humidité, vent, précipitations et pression atmosphérique. Les graphiques facilitent le suivi de la journée, tandis que le tableau donne accès aux mesures horaires et infra-horaires disponibles.

Pour replacer ces mesures dans leur contexte, consultez la climatologie de Embrun ainsi que ses normales et records. Retrouvez aussi la carte des observations météo en temps réel.